Time;durP1;ratioP1;P1;durP2;ratioP2;P2;SDS_P1;SDS_P2;PMS_P1;PMS_P2;Temp;Humidity;BMP_temperature;BMP_pressure;BME280_temperature;BME280_humidity;BME280_pressure;Samples;Min_cycle;Max_cycle;Signal;HPM_P1;HPM_P2
2023/08/08 00:01:28;;;;;;;;;;;;;;;13.38;72.12;98052.84;5115089;27;19924;-58
2023/08/08 00:04:16;;;;;;;;;;;;;;;13.30;72.46;98051.72;5115281;27;19932;-57
2023/08/08 00:07:04;;;;;;;;;;;;;;;13.27;72.91;98055.91;5118209;27;20852;-57
2023/08/08 00:09:53;;;;;;;;;;;;;;;13.42;72.58;98051.84;5119515;27;19923;-58
2023/08/08 00:12:42;;;;;;;;;;;;;;;13.26;72.65;98051.59;5121958;27;19976;-58
2023/08/08 00:15:30;;;;;;;;;;;;;;;13.35;72.71;98049.63;5108905;27;20023;-58
2023/08/08 00:18:18;;;;;;;;;;;;;;;13.45;72.60;98042.22;5123142;27;20008;-57
2023/08/08 00:21:07;;;;;;;;;;;;;;;13.41;72.68;98047.50;5127519;27;19928;-58
2023/08/08 00:23:55;;;;;;;;;;;;;;;13.42;72.26;98049.13;5121680;27;20389;-58
2023/08/08 00:26:43;;;;;;;;;;;;;;;13.41;72.57;98042.06;5120915;27;19934;-58
2023/08/08 00:29:32;;;;;;;;;;;;;;;13.43;72.06;98034.38;5107530;27;20023;-59
2023/08/08 00:32:21;;;;;;;;;;;;;;;13.34;72.23;98037.09;5100467;27;19928;-58
2023/08/08 00:35:09;;;;;;;;;;;;;;;13.39;72.16;98033.41;5119832;27;21640;-58
2023/08/08 00:37:58;;;;;;;;;;;;;;;13.30;72.36;98032.63;5104163;27;19928;-57
2023/08/08 00:40:46;;;;;;;;;;;;;;;13.33;72.08;98040.19;5105893;27;19932;-58
2023/08/08 00:43:34;;;;;;;;;;;;;;;13.29;72.36;98028.31;5120517;27;19932;-58
2023/08/08 00:46:24;;;;;;;;;;;;;;;13.36;72.33;98023.94;5121376;27;20217;-58
2023/08/08 00:49:12;;;;;;;;;;;;;;;13.41;71.99;98031.16;5101231;27;20139;-59
2023/08/08 00:52:01;;;;;;;;;;;;;;;13.41;72.25;98024.88;5131265;27;19930;-59
2023/08/08 00:54:49;;;;;;;;;;;;;;;13.44;71.81;98029.69;5130104;27;19928;-59
2023/08/08 00:57:38;;;;;;;;;;;;;;;13.41;71.73;98025.69;5107412;27;19938;-59
2023/08/08 01:00:26;;;;;;;;;;;;;;;13.50;71.74;98025.66;5119634;27;19981;-57
2023/08/08 01:03:15;;;;;;;;;;;;;;;13.53;71.76;98025.81;5106431;27;19924;-61
2023/08/08 01:06:04;;;;;;;;;;;;;;;13.49;71.48;98032.25;5107130;27;20365;-59
2023/08/08 01:08:54;;;;;;;;;;;;;;;13.52;71.40;98026.91;5107723;27;19931;-58
2023/08/08 01:11:42;;;;;;;;;;;;;;;13.58;71.45;98031.09;5130450;27;19960;-61
2023/08/08 01:14:31;;;;;;;;;;;;;;;13.42;71.09;98016.38;5105666;27;19924;-58
2023/08/08 01:17:21;;;;;;;;;;;;;;;13.50;71.48;98021.00;5098519;27;19934;-59
2023/08/08 01:20:14;;;;;;;;;;;;;;;13.41;71.40;98025.69;5093138;27;20513;-58
2023/08/08 01:23:04;;;;;;;;;;;;;;;13.51;71.26;98028.06;5081280;27;20976;-59
2023/08/08 01:25:54;;;;;;;;;;;;;;;13.50;71.44;98018.28;5099394;27;20014;-58
2023/08/08 01:28:43;;;;;;;;;;;;;;;13.49;71.15;98018.59;5100960;28;20439;-58
2023/08/08 01:31:31;;;;;;;;;;;;;;;13.52;71.19;98016.00;5085745;28;19927;-57
2023/08/08 01:34:19;;;;;;;;;;;;;;;13.55;71.53;98014.56;5107483;27;19934;-59
2023/08/08 01:37:08;;;;;;;;;;;;;;;13.55;71.55;97998.97;5101953;27;19955;-57
2023/08/08 01:39:58;;;;;;;;;;;;;;;13.51;71.15;98010.88;5112053;27;19928;-58
2023/08/08 01:42:48;;;;;;;;;;;;;;;13.53;70.78;98017.63;5111467;27;19928;-58
2023/08/08 01:45:37;;;;;;;;;;;;;;;13.53;70.72;98012.16;5088883;27;19962;-58
2023/08/08 01:48:26;;;;;;;;;;;;;;;13.56;70.93;98006.03;5091076;27;19932;-58
2023/08/08 01:51:14;;;;;;;;;;;;;;;13.58;71.23;98006.53;5079325;28;19928;-58
2023/08/08 01:54:02;;;;;;;;;;;;;;;13.65;70.80;98011.47;5109149;27;19979;-59
2023/08/08 01:56:51;;;;;;;;;;;;;;;13.70;70.41;98010.47;5085555;28;19954;-59
2023/08/08 01:59:40;;;;;;;;;;;;;;;13.63;70.35;98010.97;5083930;28;19931;-58
2023/08/08 02:02:29;;;;;;;;;;;;;;;13.55;70.21;98009.91;5097510;28;20005;-58
2023/08/08 02:05:17;;;;;;;;;;;;;;;13.59;69.98;98015.50;5084364;28;19932;-59
2023/08/08 02:08:06;;;;;;;;;;;;;;;13.63;70.05;98013.72;5100152;28;20004;-58
2023/08/08 02:10:55;;;;;;;;;;;;;;;13.61;70.62;98003.13;5094505;28;19923;-59
2023/08/08 02:13:43;;;;;;;;;;;;;;;13.60;70.53;98009.72;5112691;27;19928;-58
2023/08/08 02:16:34;;;;;;;;;;;;;;;13.59;70.30;98005.41;5079339;28;19931;-59
2023/08/08 02:19:22;;;;;;;;;;;;;;;13.63;70.58;98014.53;5086901;28;20137;-58
2023/08/08 02:22:14;;;;;;;;;;;;;;;13.65;70.78;98013.41;5108965;27;19928;-60
2023/08/08 02:25:02;;;;;;;;;;;;;;;13.60;71.09;98009.72;5098679;28;19931;-60
2023/08/08 02:27:50;;;;;;;;;;;;;;;13.62;70.58;98012.13;5099479;28;19936;-58
2023/08/08 02:30:39;;;;;;;;;;;;;;;13.62;70.53;98015.63;5096692;28;19939;-59
2023/08/08 02:33:31;;;;;;;;;;;;;;;13.60;70.88;98020.63;5099949;28;19931;-57
2023/08/08 02:36:19;;;;;;;;;;;;;;;13.55;71.22;98020.81;5101660;28;20077;-58
2023/08/08 02:39:07;;;;;;;;;;;;;;;13.57;71.14;98013.09;5110274;27;19931;-58
2023/08/08 02:41:56;;;;;;;;;;;;;;;13.59;71.13;98012.78;5100588;28;19958;-59
2023/08/08 02:44:45;;;;;;;;;;;;;;;13.49;71.57;98022.13;5103466;28;19928;-58
2023/08/08 02:47:33;;;;;;;;;;;;;;;13.48;71.23;98017.81;5099731;28;19927;-60
2023/08/08 02:50:23;;;;;;;;;;;;;;;13.43;71.39;98014.47;5098780;28;19950;-59
2023/08/08 02:53:12;;;;;;;;;;;;;;;13.45;71.64;98014.94;5103506;28;20398;-58
2023/08/08 02:56:05;;;;;;;;;;;;;;;13.38;70.57;98015.44;5099037;28;20402;-59
2023/08/08 02:58:58;;;;;;;;;;;;;;;13.43;70.27;98012.53;5111322;27;19930;-58
2023/08/08 03:01:47;;;;;;;;;;;;;;;13.43;69.22;98019.91;5098060;28;19978;-57
2023/08/08 03:04:38;;;;;;;;;;;;;;;13.48;69.65;98009.63;5102810;28;20014;-58
2023/08/08 03:07:29;;;;;;;;;;;;;;;13.53;69.65;98017.63;5098738;28;19924;-58
2023/08/08 03:10:17;;;;;;;;;;;;;;;13.52;71.00;98010.53;5100800;28;19932;-60
2023/08/08 03:13:05;;;;;;;;;;;;;;;13.57;71.07;98010.38;5098987;27;19995;-58
2023/08/08 03:15:53;;;;;;;;;;;;;;;13.67;70.92;97994.75;5100497;28;19934;-58
2023/08/08 03:18:41;;;;;;;;;;;;;;;13.51;70.97;97991.78;5102119;27;20424;-57
2023/08/08 03:21:32;;;;;;;;;;;;;;;13.58;71.19;97998.34;5130247;27;19924;-58
2023/08/08 03:24:22;;;;;;;;;;;;;;;13.49;71.49;97986.66;5108103;27;19930;-57
2023/08/08 03:27:10;;;;;;;;;;;;;;;13.50;71.88;97990.19;5130752;27;19958;-59
2023/08/08 03:29:58;;;;;;;;;;;;;;;13.43;71.96;97985.25;5101310;27;19927;-59
2023/08/08 03:32:53;;;;;;;;;;;;;;;13.46;72.57;98000.94;5132833;27;19930;-58
2023/08/08 03:35:43;;;;;;;;;;;;;;;13.45;72.40;97999.34;5122093;27;19934;-59
2023/08/08 03:38:32;;;;;;;;;;;;;;;13.46;72.96;98009.13;5102779;27;19969;-58
2023/08/08 03:41:24;;;;;;;;;;;;;;;13.42;73.24;98010.09;5105981;27;19927;-59
2023/08/08 03:44:16;;;;;;;;;;;;;;;13.42;73.33;98005.44;5104265;27;19923;-58
2023/08/08 03:47:04;;;;;;;;;;;;;;;13.47;73.33;98008.00;5104703;27;19930;-58
2023/08/08 03:50:04;;;;;;;;;;;;;;;13.48;73.54;98015.09;5107578;27;20380;-58
2023/08/08 03:52:53;;;;;;;;;;;;;;;13.44;73.96;98013.34;5103345;27;19923;-58
2023/08/08 03:55:44;;;;;;;;;;;;;;;13.43;74.15;98012.53;5128951;27;20563;-59
2023/08/08 03:58:34;;;;;;;;;;;;;;;13.43;74.62;98012.53;5135513;27;19979;-58
2023/08/08 04:01:22;;;;;;;;;;;;;;;13.46;74.33;98014.59;5107349;27;20456;-57
2023/08/08 04:04:10;;;;;;;;;;;;;;;13.47;74.85;98012.66;5102687;27;19938;-57
2023/08/08 04:06:58;;;;;;;;;;;;;;;13.36;75.11;98013.00;5106173;27;19958;-58
2023/08/08 04:09:46;;;;;;;;;;;;;;;13.46;74.81;98009.13;5106378;27;20490;-58
2023/08/08 04:12:34;;;;;;;;;;;;;;;13.42;75.15;98016.38;5134432;27;19976;-58
2023/08/08 04:15:24;;;;;;;;;;;;;;;13.47;74.97;98021.66;5099953;27;19987;-58
2023/08/08 04:18:13;;;;;;;;;;;;;;;13.46;75.02;98017.31;5105142;27;19924;-59
2023/08/08 04:21:01;;;;;;;;;;;;;;;13.46;75.07;98022.78;5104102;28;19923;-58
2023/08/08 04:23:49;;;;;;;;;;;;;;;13.40;75.41;98023.28;5104653;27;20393;-59
2023/08/08 04:26:37;;;;;;;;;;;;;;;13.40;75.68;98023.28;5109874;27;19931;-58
2023/08/08 04:29:25;;;;;;;;;;;;;;;13.41;75.63;98022.94;5088837;28;20018;-58
2023/08/08 04:32:15;;;;;;;;;;;;;;;13.42;75.67;98024.56;5093058;27;20572;-59
2023/08/08 04:35:03;;;;;;;;;;;;;;;13.33;75.87;98021.88;5099410;28;20629;-58
2023/08/08 04:37:51;;;;;;;;;;;;;;;13.33;76.04;98015.63;5101568;27;19924;-60
2023/08/08 04:40:39;;;;;;;;;;;;;;;13.27;76.27;98011.47;5094471;27;19960;-57
2023/08/08 04:43:28;;;;;;;;;;;;;;;13.20;76.67;98013.84;5095019;27;19928;-58
2023/08/08 04:46:16;;;;;;;;;;;;;;;13.16;76.70;98018.38;5098892;28;19949;-60
2023/08/08 04:49:06;;;;;;;;;;;;;;;13.30;76.38;98018.97;5112211;27;19933;-57
2023/08/08 04:51:54;;;;;;;;;;;;;;;13.23;76.76;98010.50;5101801;27;19936;-57
2023/08/08 04:54:42;;;;;;;;;;;;;;;13.22;76.65;98012.44;5105518;27;20266;-59
2023/08/08 04:57:30;;;;;;;;;;;;;;;13.28;76.75;98018.53;5081459;27;19939;-58
2023/08/08 05:00:20;;;;;;;;;;;;;;;13.29;76.54;98020.13;5112978;27;19928;-59
2023/08/08 05:03:08;;;;;;;;;;;;;;;13.24;76.57;98009.38;5101170;27;19980;-59
2023/08/08 05:05:58;;;;;;;;;;;;;;;13.29;76.29;98017.38;5112548;27;19923;-58
2023/08/08 05:08:47;;;;;;;;;;;;;;;13.29;76.05;98014.66;5095244;27;19928;-58
2023/08/08 05:11:35;;;;;;;;;;;;;;;13.33;75.91;98012.88;5098157;28;19928;-58
2023/08/08 05:14:23;;;;;;;;;;;;;;;13.35;75.55;98011.41;5100926;28;19935;-58
2023/08/08 05:17:11;;;;;;;;;;;;;;;13.36;75.55;98007.56;5097185;27;19928;-58
2023/08/08 05:19:59;;;;;;;;;;;;;;;13.33;75.14;98015.63;5110802;27;19923;-58
2023/08/08 05:22:49;;;;;;;;;;;;;;;13.31;75.37;98018.66;5133512;27;19930;-58
2023/08/08 05:25:37;;;;;;;;;;;;;;;13.39;75.07;98022.50;5116537;27;19924;-58
2023/08/08 05:28:25;;;;;;;;;;;;;;;13.41;75.18;98024.88;5103720;27;19934;-58
2023/08/08 05:31:13;;;;;;;;;;;;;;;13.51;74.88;98019.06;5119160;27;20056;-58
2023/08/08 05:34:01;;;;;;;;;;;;;;;13.51;74.50;98013.59;5102768;27;19931;-57
2023/08/08 05:36:49;;;;;;;;;;;;;;;13.52;74.12;98021.47;5119336;27;19923;-57
2023/08/08 05:39:50;;;;;;;;;;;;;;;13.55;75.07;98014.56;5102818;27;19951;-59
2023/08/08 05:42:38;;;;;;;;;;;;;;;13.59;74.33;98020.97;5105283;28;20108;-58
2023/08/08 05:45:26;;;;;;;;;;;;;;;13.69;73.86;98008.84;5116044;27;19950;-60
2023/08/08 05:48:14;;;;;;;;;;;;;;;13.68;73.23;98012.72;5114752;27;19978;-59
2023/08/08 05:51:04;;;;;;;;;;;;;;;13.76;73.24;98015.41;5117112;27;19931;-58
2023/08/08 05:53:53;;;;;;;;;;;;;;;13.78;73.43;98015.88;5116580;27;20572;-62
2023/08/08 05:56:42;;;;;;;;;;;;;;;13.82;72.86;98013.31;5114085;27;22342;-58
2023/08/08 05:59:30;;;;;;;;;;;;;;;13.89;73.24;98019.03;5103528;28;19935;-57
2023/08/08 06:02:18;;;;;;;;;;;;;;;14.02;71.97;98012.53;5116661;27;19923;-58
2023/08/08 06:05:07;;;;;;;;;;;;;;;14.07;71.80;98019.75;5122085;27;19923;-58
2023/08/08 06:07:56;;;;;;;;;;;;;;;14.13;71.89;98019.22;5118315;27;19923;-58
2023/08/08 06:10:44;;;;;;;;;;;;;;;14.20;72.19;98017.88;5120867;27;19927;-58
2023/08/08 06:13:33;;;;;;;;;;;;;;;14.28;72.30;98017.03;5118625;27;20360;-58
2023/08/08 06:16:22;;;;;;;;;;;;;;;14.31;72.08;98024.56;5116491;27;19931;-58
2023/08/08 06:19:10;;;;;;;;;;;;;;;14.41;71.55;98024.97;5120218;27;20389;-58
2023/08/08 06:21:58;;;;;;;;;;;;;;;14.27;70.50;98035.34;5135170;27;19923;-59
2023/08/08 06:24:47;;;;;;;;;;;;;;;14.27;70.91;98024.41;5116498;27;19965;-58
2023/08/08 06:27:35;;;;;;;;;;;;;;;14.20;70.54;98017.88;5123755;27;19937;-58
2023/08/08 06:30:24;;;;;;;;;;;;;;;14.25;70.93;98015.75;5123820;27;19931;-57
2023/08/08 06:33:13;;;;;;;;;;;;;;;14.29;70.32;98027.63;5119126;27;20076;-59
2023/08/08 06:36:01;;;;;;;;;;;;;;;14.29;70.64;98021.38;5123315;27;19932;-59
2023/08/08 06:38:49;;;;;;;;;;;;;;;14.34;70.59;98013.75;5136072;27;20584;-59
2023/08/08 06:41:38;;;;;;;;;;;;;;;14.41;70.54;98015.97;5122151;27;19924;-58
2023/08/08 06:44:28;;;;;;;;;;;;;;;14.40;71.09;98011.63;5110470;27;19927;-58
2023/08/08 06:47:18;;;;;;;;;;;;;;;14.47;70.71;98020.13;5120834;27;20562;-59
2023/08/08 06:50:07;;;;;;;;;;;;;;;14.49;70.87;98008.84;5121598;27;19923;-58
2023/08/08 06:52:55;;;;;;;;;;;;;;;14.58;70.81;98007.63;5127505;27;20404;-60
2023/08/08 06:55:43;;;;;;;;;;;;;;;14.73;70.69;98002.69;5121144;27;20452;-57
2023/08/08 06:58:32;;;;;;;;;;;;;;;14.85;70.75;98010.94;5120771;27;19962;-57
2023/08/08 07:01:22;;;;;;;;;;;;;;;14.91;70.22;98004.13;5118650;27;19957;-57
2023/08/08 07:04:12;;;;;;;;;;;;;;;14.83;69.47;98000.34;5125858;27;19927;-58
2023/08/08 07:07:01;;;;;;;;;;;;;;;14.88;69.17;98004.81;5122302;27;19923;-57
2023/08/08 07:09:50;;;;;;;;;;;;;;;14.91;69.75;97995.91;5124452;27;19927;-59
2023/08/08 07:12:38;;;;;;;;;;;;;;;14.99;68.94;97995.03;5117139;27;20550;-58
2023/08/08 07:15:27;;;;;;;;;;;;;;;15.08;69.04;97998.50;5119372;27;19931;-57
2023/08/08 07:18:15;;;;;;;;;;;;;;;14.98;68.25;97990.72;5115772;27;19938;-58
2023/08/08 07:21:05;;;;;;;;;;;;;;;14.97;68.06;97991.84;5123274;27;20610;-57
2023/08/08 07:23:57;;;;;;;;;;;;;;;15.01;67.91;97990.00;5121194;27;20473;-58
2023/08/08 07:26:45;;;;;;;;;;;;;;;15.08;68.73;97982.06;5123372;27;19923;-58
2023/08/08 07:29:33;;;;;;;;;;;;;;;15.10;68.20;97982.53;5104216;27;19928;-57
2023/08/08 07:32:21;;;;;;;;;;;;;;;15.10;67.62;97990.72;5108460;27;19978;-58
2023/08/08 07:35:10;;;;;;;;;;;;;;;15.11;68.10;97983.31;5124294;27;19924;-57
2023/08/08 07:38:00;;;;;;;;;;;;;;;15.17;67.81;97985.47;5123861;27;19927;-60
2023/08/08 07:40:48;;;;;;;;;;;;;;;15.17;67.23;97985.47;5133947;27;19934;-57
2023/08/08 07:43:37;;;;;;;;;;;;;;;15.17;66.41;97977.28;5126132;27;19928;-57
2023/08/08 07:46:25;;;;;;;;;;;;;;;15.29;66.23;97982.00;5124173;27;20002;-57
2023/08/08 07:49:14;;;;;;;;;;;;;;;15.22;66.15;97986.41;5124355;27;20571;-57
2023/08/08 07:52:02;;;;;;;;;;;;;;;15.23;66.17;97972.38;5119107;27;19924;-57
2023/08/08 07:54:52;;;;;;;;;;;;;;;15.26;66.13;97981.88;5120703;27;19991;-57
2023/08/08 07:57:40;;;;;;;;;;;;;;;15.34;66.13;97972.72;5096945;27;19930;-58
2023/08/08 08:00:29;;;;;;;;;;;;;;;15.39;66.31;97975.25;5111411;27;19928;-57
2023/08/08 08:03:17;;;;;;;;;;;;;;;15.55;67.50;97981.66;5106222;27;19930;-58
2023/08/08 08:06:05;;;;;;;;;;;;;;;15.62;65.29;97970.94;5107764;27;19928;-58
2023/08/08 08:08:53;;;;;;;;;;;;;;;15.67;64.34;97973.47;5119028;27;19933;-58
2023/08/08 08:11:43;;;;;;;;;;;;;;;15.74;64.42;97972.91;5117790;27;19927;-58
2023/08/08 08:14:31;;;;;;;;;;;;;;;15.82;66.53;97962.94;5118039;27;19930;-57
2023/08/08 08:17:19;;;;;;;;;;;;;;;15.92;63.98;97963.28;5120344;27;19928;-58
2023/08/08 08:20:10;;;;;;;;;;;;;;;16.03;65.00;97968.28;5117907;27;19930;-57
2023/08/08 08:22:58;;;;;;;;;;;;;;;16.04;63.04;97965.22;5120280;27;19924;-57
2023/08/08 08:25:48;;;;;;;;;;;;;;;16.05;62.88;97957.78;5115646;27;19930;-57
2023/08/08 08:28:39;;;;;;;;;;;;;;;16.07;64.04;97961.78;5121435;27;19935;-57
2023/08/08 08:31:28;;;;;;;;;;;;;;;16.16;61.56;97958.91;5115528;27;19927;-58
2023/08/08 08:34:16;;;;;;;;;;;;;;;16.17;60.49;97953.06;5121576;27;19924;-57
2023/08/08 08:37:04;;;;;;;;;;;;;;;16.23;59.02;97953.63;5125655;27;19938;-57
2023/08/08 08:39:52;;;;;;;;;;;;;;;16.31;58.18;97962.88;5124459;27;19987;-58
2023/08/08 08:42:44;;;;;;;;;;;;;;;16.42;61.18;97962.03;5121602;27;19935;-57
2023/08/08 08:45:33;;;;;;;;;;;;;;;16.47;59.42;97960.97;5123806;27;19954;-57
2023/08/08 08:48:22;;;;;;;;;;;;;;;16.52;58.64;97958.00;5122583;27;19985;-57
2023/08/08 08:51:10;;;;;;;;;;;;;;;16.67;58.38;97956.44;5123019;27;19927;-58
2023/08/08 08:53:59;;;;;;;;;;;;;;;16.81;58.48;97959.59;5120805;27;19923;-57
2023/08/08 08:56:48;;;;;;;;;;;;;;;16.76;56.76;97952.41;5119990;27;19970;-59
2023/08/08 08:59:38;;;;;;;;;;;;;;;16.86;56.70;97958.53;5121987;27;20432;-57
2023/08/08 09:02:28;;;;;;;;;;;;;;;16.92;55.51;97946.16;5119809;27;20050;-56
2023/08/08 09:05:17;;;;;;;;;;;;;;;17.03;54.80;97948.03;5133185;27;19976;-57
2023/08/08 09:08:05;;;;;;;;;;;;;;;17.03;57.76;97949.97;5123784;27;19927;-58
2023/08/08 09:10:56;;;;;;;;;;;;;;;17.05;52.44;97950.44;5115392;27;19928;-58
2023/08/08 09:13:44;;;;;;;;;;;;;;;17.07;52.37;97961.84;5107081;27;19938;-57
2023/08/08 09:16:32;;;;;;;;;;;;;;;17.11;52.76;97949.03;5117246;27;19997;-56
2023/08/08 09:19:22;;;;;;;;;;;;;;;17.13;54.74;97943.16;5129099;27;19927;-59
2023/08/08 09:22:13;;;;;;;;;;;;;;;17.09;51.60;97940.31;5119517;27;19928;-56
2023/08/08 09:25:02;;;;;;;;;;;;;;;17.17;52.02;97938.56;5105250;27;19981;-57
2023/08/08 09:27:51;;;;;;;;;;;;;;;17.16;51.97;97923.25;5120594;27;19924;-57
2023/08/08 09:30:40;;;;;;;;;;;;;;;17.26;57.00;97937.25;5119744;27;19930;-57
2023/08/08 09:33:29;;;;;;;;;;;;;;;17.34;51.78;97940.16;5134930;27;19927;-57
2023/08/08 09:36:19;;;;;;;;;;;;;;;17.24;51.70;97942.28;5114257;27;19942;-56
2023/08/08 09:39:08;;;;;;;;;;;;;;;17.25;51.59;97948.56;5122687;27;19923;-57
2023/08/08 09:41:56;;;;;;;;;;;;;;;17.13;50.27;97938.47;5123124;27;20447;-57
2023/08/08 09:44:44;;;;;;;;;;;;;;;17.20;50.34;97924.91;5119332;27;20292;-56
2023/08/08 09:47:33;;;;;;;;;;;;;;;17.22;50.29;97932.81;5114799;27;19936;-59
2023/08/08 09:50:21;;;;;;;;;;;;;;;17.28;49.97;97936.88;5119765;27;19927;-57
2023/08/08 09:53:11;;;;;;;;;;;;;;;17.34;55.55;97915.44;5119031;27;19932;-58
2023/08/08 09:55:59;;;;;;;;;;;;;;;17.38;51.23;97924.59;5115098;27;20018;-57
2023/08/08 09:58:47;;;;;;;;;;;;;;;17.42;50.54;97920.78;5112505;27;19930;-57
2023/08/08 10:01:35;;;;;;;;;;;;;;;17.43;50.32;97927.84;5097335;27;20097;-57
2023/08/08 10:04:24;;;;;;;;;;;;;;;17.46;49.97;97926.31;5116240;27;19924;-57
2023/08/08 10:07:12;;;;;;;;;;;;;;;17.34;48.34;97934.69;5117447;27;19930;-58
2023/08/08 10:10:03;;;;;;;;;;;;;;;17.31;49.24;97932.63;5113453;28;20383;-56
2023/08/08 10:12:51;;;;;;;;;;;;;;;17.35;50.45;97928.03;5115579;27;19939;-57
2023/08/08 10:15:40;;;;;;;;;;;;;;;17.36;49.11;97932.34;5120233;27;19950;-59
2023/08/08 10:18:29;;;;;;;;;;;;;;;17.42;47.16;97928.22;5118345;27;20023;-57
2023/08/08 10:21:17;;;;;;;;;;;;;;;17.49;47.49;97920.13;5121292;27;19931;-57
2023/08/08 10:24:07;;;;;;;;;;;;;;;17.56;47.39;97909.31;5128685;27;20059;-58
2023/08/08 10:26:57;;;;;;;;;;;;;;;17.61;48.20;97922.78;5118139;27;21193;-59
2023/08/08 10:29:47;;;;;;;;;;;;;;;17.68;47.86;97922.91;5117380;28;19931;-58
2023/08/08 10:32:39;;;;;;;;;;;;;;;17.73;47.28;97913.63;5121859;27;19923;-57
2023/08/08 10:35:35;;;;;;;;;;;;;;;17.82;48.57;97914.25;5114907;27;19934;-57
2023/08/08 10:38:26;;;;;;;;;;;;;;;17.93;47.49;97909.00;5116412;27;19930;-58
2023/08/08 10:41:14;;;;;;;;;;;;;;;17.99;48.72;97910.28;5100870;27;19973;-58
2023/08/08 10:44:09;;;;;;;;;;;;;;;17.95;48.36;97914.91;5116014;27;20402;-60
2023/08/08 10:46:57;;;;;;;;;;;;;;;17.93;46.35;97911.72;5114045;27;19928;-59
2023/08/08 10:49:56;;;;;;;;;;;;;;;18.00;47.54;97898.13;5132988;27;20018;-56
2023/08/08 10:52:51;;;;;;;;;;;;;;;17.98;45.65;97927.94;5119797;27;19923;-56
2023/08/08 10:55:40;;;;;;;;;;;;;;;17.97;45.49;97909.88;5116664;27;19927;-58
2023/08/08 10:58:37;;;;;;;;;;;;;;;17.99;46.34;97911.09;5116192;27;19927;-57
2023/08/08 11:01:27;;;;;;;;;;;;;;;18.01;47.57;97916.25;5117600;27;19932;-57
2023/08/08 11:04:16;;;;;;;;;;;;;;;18.04;47.65;97912.75;5120433;27;19976;-57
2023/08/08 11:07:04;;;;;;;;;;;;;;;18.08;48.94;97915.59;5127011;27;19931;-56
2023/08/08 11:09:53;;;;;;;;;;;;;;;18.12;47.86;97902.72;5115422;27;19927;-58
2023/08/08 11:12:41;;;;;;;;;;;;;;;18.05;44.11;97912.38;5118145;27;19923;-58
2023/08/08 11:15:29;;;;;;;;;;;;;;;17.99;44.90;97913.03;5121853;27;19927;-57
2023/08/08 11:18:19;;;;;;;;;;;;;;;18.04;47.85;97910.00;5125323;27;19980;-57
2023/08/08 11:21:12;;;;;;;;;;;;;;;18.00;45.69;97906.38;5120448;27;19927;-57
2023/08/08 11:24:06;;;;;;;;;;;;;;;18.00;46.93;97903.63;5105913;27;19927;-57
2023/08/08 11:26:59;;;;;;;;;;;;;;;18.04;45.27;97899.81;5123815;27;19927;-57
2023/08/08 11:29:49;;;;;;;;;;;;;;;18.10;48.05;97899.53;5117801;27;19939;-57
2023/08/08 11:32:38;;;;;;;;;;;;;;;18.12;47.17;97899.97;5110409;27;19924;-56
2023/08/08 11:35:27;;;;;;;;;;;;;;;18.12;46.06;97892.53;5108173;27;19935;-57
2023/08/08 11:38:16;;;;;;;;;;;;;;;18.17;43.50;97908.72;5122872;27;19931;-56
2023/08/08 11:41:04;;;;;;;;;;;;;;;18.18;44.18;97902.06;5120748;27;19923;-57
2023/08/08 11:43:52;;;;;;;;;;;;;;;18.17;46.16;97894.97;5122481;27;19935;-57
2023/08/08 11:46:44;;;;;;;;;;;;;;;18.23;45.28;97896.28;5116683;27;19924;-57
2023/08/08 11:49:39;;;;;;;;;;;;;;;18.19;43.88;97911.13;5122835;27;20011;-56
2023/08/08 11:52:30;;;;;;;;;;;;;;;18.25;43.20;97907.72;5107116;27;19951;-57
2023/08/08 11:55:22;;;;;;;;;;;;;;;18.35;43.34;97900.03;5103189;27;20299;-59
2023/08/08 11:58:13;;;;;;;;;;;;;;;18.43;43.66;97893.50;5119677;27;20002;-57
2023/08/08 12:01:03;;;;;;;;;;;;;;;18.49;44.26;97901.13;5116762;27;19934;-57
2023/08/08 12:03:51;;;;;;;;;;;;;;;18.49;45.52;97892.88;5122384;27;20344;-56
2023/08/08 12:06:42;;;;;;;;;;;;;;;18.53;41.94;97895.66;5114399;27;19935;-57
2023/08/08 12:09:33;;;;;;;;;;;;;;;18.58;42.13;97892.63;5115150;27;19954;-57
2023/08/08 12:12:21;;;;;;;;;;;;;;;18.60;42.70;97890.31;5117386;27;19984;-58
2023/08/08 12:15:10;;;;;;;;;;;;;;;18.65;42.80;97892.78;5118527;27;19937;-58
2023/08/08 12:18:03;;;;;;;;;;;;;;;18.58;42.38;97878.88;5115199;27;19923;-58
2023/08/08 12:20:52;;;;;;;;;;;;;;;18.57;42.94;97874.53;5111409;27;20018;-57
2023/08/08 12:23:40;;;;;;;;;;;;;;;18.58;43.42;97876.13;5117278;27;19927;-59
2023/08/08 12:26:30;;;;;;;;;;;;;;;18.62;43.74;97876.97;5101322;27;19927;-57
2023/08/08 12:29:18;;;;;;;;;;;;;;;18.67;42.59;97867.63;5116825;27;19931;-58
2023/08/08 12:32:07;;;;;;;;;;;;;;;18.60;41.99;97876.56;5124841;27;19927;-57
2023/08/08 12:34:56;;;;;;;;;;;;;;;18.64;42.93;97879.38;5126936;27;19931;-59
2023/08/08 12:37:45;;;;;;;;;;;;;;;18.69;43.53;97876.34;5120134;27;20012;-59
2023/08/08 12:40:34;;;;;;;;;;;;;;;18.68;41.87;97880.25;5114542;27;19935;-58
2023/08/08 12:43:23;;;;;;;;;;;;;;;18.72;41.76;97892.13;5120231;27;20347;-59
2023/08/08 12:46:11;;;;;;;;;;;;;;;18.73;43.31;97893.72;5120780;27;19927;-59
2023/08/08 12:48:59;;;;;;;;;;;;;;;18.77;42.19;97884.38;5119584;27;19946;-58
2023/08/08 12:51:48;;;;;;;;;;;;;;;18.77;41.71;97878.88;5101219;27;20487;-58
2023/08/08 12:54:36;;;;;;;;;;;;;;;18.86;41.42;97883.34;5116814;27;19924;-59
2023/08/08 12:57:25;;;;;;;;;;;;;;;18.91;41.65;97872.00;5116661;27;19979;-59
2023/08/08 13:00:17;;;;;;;;;;;;;;;18.86;42.91;97875.09;5114248;27;20380;-59
2023/08/08 13:03:05;;;;;;;;;;;;;;;18.92;42.98;97868.13;5121457;27;19927;-58
2023/08/08 13:05:54;;;;;;;;;;;;;;;18.96;41.68;97872.53;5115160;27;20349;-59
2023/08/08 13:08:42;;;;;;;;;;;;;;;19.02;41.87;97875.78;5121885;27;19932;-57
2023/08/08 13:11:30;;;;;;;;;;;;;;;18.93;41.84;97864.19;5121214;27;19927;-58
2023/08/08 13:14:18;;;;;;;;;;;;;;;18.95;41.14;97862.66;5115288;27;19924;-59
2023/08/08 13:17:09;;;;;;;;;;;;;;;18.98;40.79;97874.91;5131322;27;19946;-58
2023/08/08 13:19:57;;;;;;;;;;;;;;;18.97;42.62;97865.06;5092345;27;19928;-58
2023/08/08 13:22:46;;;;;;;;;;;;;;;19.00;40.79;97869.81;5103672;27;19983;-57
2023/08/08 13:25:34;;;;;;;;;;;;;;;19.00;40.69;97862.34;5099272;27;19931;-57
2023/08/08 13:28:23;;;;;;;;;;;;;;;19.02;41.63;97862.00;5098056;27;19928;-57
2023/08/08 13:31:11;;;;;;;;;;;;;;;19.06;39.59;97858.13;5100255;27;19950;-58
2023/08/08 13:34:01;;;;;;;;;;;;;;;19.14;43.44;97855.50;5103157;27;20602;-58
2023/08/08 13:36:49;;;;;;;;;;;;;;;19.09;40.99;97848.34;5082818;27;20600;-58
2023/08/08 13:39:38;;;;;;;;;;;;;;;19.10;40.97;97858.97;5101363;27;20119;-58
2023/08/08 13:42:26;;;;;;;;;;;;;;;19.06;40.13;97871.09;5104943;27;20537;-58
2023/08/08 13:45:14;;;;;;;;;;;;;;;19.13;39.91;97862.97;5117884;27;19923;-59
2023/08/08 13:48:03;;;;;;;;;;;;;;;19.16;38.43;97859.47;5109432;27;20006;-58
2023/08/08 13:50:53;;;;;;;;;;;;;;;19.13;38.97;97857.47;5102623;27;20021;-58
2023/08/08 13:53:41;;;;;;;;;;;;;;;19.10;39.03;97852.69;5095797;28;20002;-60
2023/08/08 13:56:30;;;;;;;;;;;;;;;19.09;39.17;97856.59;5098360;27;19935;-60
2023/08/08 13:59:18;;;;;;;;;;;;;;;19.14;40.24;97853.53;5105578;28;19952;-57
2023/08/08 14:02:06;;;;;;;;;;;;;;;19.26;41.39;97852.53;5110770;28;19927;-58
2023/08/08 14:04:54;;;;;;;;;;;;;;;19.24;39.73;97852.91;5097668;28;19950;-58
2023/08/08 14:07:46;;;;;;;;;;;;;;;19.27;41.50;97846.66;5103283;28;19928;-59
2023/08/08 14:10:34;;;;;;;;;;;;;;;19.20;41.23;97846.56;5102232;28;19924;-58
2023/08/08 14:13:23;;;;;;;;;;;;;;;19.24;39.92;97839.16;5107404;28;20009;-58
2023/08/08 14:16:11;;;;;;;;;;;;;;;19.27;41.16;97841.13;5106059;28;19932;-58
2023/08/08 14:19:00;;;;;;;;;;;;;;;19.30;40.39;97843.16;5104878;27;19928;-59
2023/08/08 14:21:48;;;;;;;;;;;;;;;19.31;40.47;97847.50;5119982;27;19998;-58
2023/08/08 14:24:37;;;;;;;;;;;;;;;19.31;43.03;97857.72;5122982;27;19966;-58
2023/08/08 14:27:26;;;;;;;;;;;;;;;19.30;46.53;97850.63;5134899;27;20334;-59
2023/08/08 14:30:14;;;;;;;;;;;;;;;19.26;41.23;97858.84;5118655;27;19923;-58
2023/08/08 14:33:03;;;;;;;;;;;;;;;19.25;40.11;97856.47;5120740;27;20638;-59
2023/08/08 14:35:51;;;;;;;;;;;;;;;19.23;40.01;97862.34;5108596;27;19931;-59
2023/08/08 14:38:39;;;;;;;;;;;;;;;19.23;39.34;97851.34;5106341;27;20322;-59
2023/08/08 14:41:29;;;;;;;;;;;;;;;19.23;39.09;97859.59;5126768;27;20384;-58